Terminal Aerodrome Forecast
Issued by NWS Cleveland, OH

Home | Current Version | Previous Version | Graphics & Text | Print | Product List | Glossary On
Versions: 1 2 3 4 5 6 7 8 9 10 11 12 13 14 15 16 17 18 19 20 21 22 23 24 25 26 27 28 29 30 31 32 33 34 35 36 37
000
FTUS41 KCLE 240600 AAA
TAFCLE
TAF AMD
KCLE 240619Z 2406/2512 24004KT 5SM BR BKN015
      TEMPO 2407/2411 6SM BR SCT015 BKN025
     FM241100 23004KT 5SM BR BKN015 OVC025
     FM241600 25009KT P6SM SCT025 BKN035
     FM241800 25010KT 6SM -SN BR OVC015=

USA.gov is the U.S. government's official web portal to all federal, state and local government web resources and services.